createdAt,value
2022-10-23T00:01:35.800Z,14.83
2022-10-23T00:04:06.493Z,14.87
2022-10-23T00:06:34.956Z,14.75
2022-10-23T00:09:02.694Z,14.53
2022-10-23T00:11:31.240Z,14.61
2022-10-23T00:13:59.926Z,14.61
2022-10-23T00:16:28.065Z,14.63
2022-10-23T00:18:54.789Z,14.61
2022-10-23T00:21:22.552Z,14.47
2022-10-23T00:23:49.193Z,14.48
2022-10-23T00:26:16.341Z,14.54
2022-10-23T00:28:44.569Z,14.42
2022-10-23T00:31:12.130Z,14.28
2022-10-23T00:33:41.483Z,14.27
2022-10-23T00:36:10.537Z,14.07
2022-10-23T00:38:39.552Z,14.05
2022-10-23T00:41:08.280Z,14.07
2022-10-23T00:43:54.539Z,13.96
2022-10-23T00:46:21.594Z,14.05
2022-10-23T00:48:48.191Z,14.05
2022-10-23T00:51:14.874Z,14.19
2022-10-23T00:53:43.876Z,14.34
2022-10-23T00:56:11.416Z,14.53
2022-10-23T00:58:37.989Z,14.80
2022-10-23T01:01:16.737Z,14.93
2022-10-23T01:03:43.674Z,14.78
2022-10-23T01:06:24.810Z,14.67
2022-10-23T01:09:12.069Z,15.00
2022-10-23T01:11:51.079Z,15.11
2022-10-23T01:14:31.092Z,15.16
2022-10-23T01:17:12.414Z,15.27
2022-10-23T01:20:00.036Z,15.30
2022-10-23T01:23:09.447Z,15.36
2022-10-23T01:25:58.824Z,15.28
2022-10-23T01:28:38.535Z,15.25
2022-10-23T01:31:11.710Z,15.21
2022-10-23T01:33:47.385Z,14.95
2022-10-23T01:36:23.739Z,14.69
2022-10-23T01:39:08.930Z,14.60
2022-10-23T01:41:42.198Z,14.66
2022-10-23T01:44:16.358Z,14.91
2022-10-23T01:46:46.801Z,15.02
2022-10-23T01:49:14.809Z,15.14
2022-10-23T01:51:46.557Z,15.23
2022-10-23T01:54:16.641Z,15.25
2022-10-23T01:56:48.532Z,15.35
2022-10-23T01:59:22.399Z,15.41
2022-10-23T02:01:53.614Z,15.24
2022-10-23T02:04:46.377Z,15.04
2022-10-23T02:07:13.147Z,14.80
2022-10-23T02:09:40.036Z,14.80
2022-10-23T02:12:08.506Z,14.92
2022-10-23T02:14:49.183Z,15.11
2022-10-23T02:17:42.642Z,15.21
2022-10-23T02:20:22.421Z,15.19
2022-10-23T02:23:12.831Z,15.33
2022-10-23T02:25:49.371Z,15.45
2022-10-23T02:28:22.449Z,15.45
2022-10-23T02:30:50.578Z,15.44
2022-10-23T02:33:18.409Z,15.45
2022-10-23T02:35:47.229Z,15.48
2022-10-23T02:38:30.840Z,15.38
2022-10-23T02:41:08.400Z,15.39
2022-10-23T02:43:49.796Z,15.40
2022-10-23T02:46:30.281Z,15.33
2022-10-23T02:49:14.731Z,15.12
2022-10-23T02:51:53.625Z,15.03
2022-10-23T02:54:36.687Z,14.93
2022-10-23T02:57:09.492Z,14.82
2022-10-23T03:00:07.786Z,14.79
2022-10-23T03:02:45.474Z,14.64
2022-10-23T03:05:20.367Z,14.64
2022-10-23T03:07:48.841Z,14.69
2022-10-23T03:10:17.804Z,14.69
2022-10-23T03:12:44.793Z,14.60
2022-10-23T03:15:12.502Z,14.61
2022-10-23T03:17:40.265Z,14.50
2022-10-23T03:20:08.339Z,14.54
2022-10-23T03:22:36.177Z,14.36
2022-10-23T03:25:03.320Z,14.46
2022-10-23T03:27:31.957Z,14.47
2022-10-23T03:30:03.768Z,14.19
2022-10-23T03:32:31.528Z,14.29
2022-10-23T03:34:59.915Z,14.25
2022-10-23T03:37:27.131Z,14.20
2022-10-23T03:39:53.743Z,14.09
2022-10-23T03:42:20.595Z,14.09
2022-10-23T03:44:47.229Z,13.95
2022-10-23T03:47:13.824Z,13.88
2022-10-23T03:49:41.663Z,14.09
2022-10-23T03:52:09.029Z,14.11
2022-10-23T03:54:35.730Z,14.11
2022-10-23T03:57:02.369Z,14.08
2022-10-23T03:59:29.243Z,14.06
2022-10-23T04:01:56.088Z,14.01
2022-10-23T04:04:24.405Z,13.97
2022-10-23T04:06:51.086Z,13.92
2022-10-23T04:09:18.945Z,13.98
2022-10-23T04:11:45.605Z,13.97
2022-10-23T04:14:13.381Z,13.95
2022-10-23T04:16:40.370Z,13.94
2022-10-23T04:19:07.046Z,13.95
2022-10-23T04:21:33.895Z,13.93
2022-10-23T04:24:01.045Z,13.96
2022-10-23T04:26:27.768Z,13.94
2022-10-23T04:28:54.469Z,13.90
2022-10-23T04:31:21.192Z,13.91
2022-10-23T04:33:47.761Z,14.00
2022-10-23T04:36:27.463Z,14.08
2022-10-23T04:38:54.111Z,14.13
2022-10-23T04:41:20.696Z,14.08
2022-10-23T04:43:47.430Z,14.12
2022-10-23T04:46:15.048Z,14.01
2022-10-23T04:48:45.247Z,13.86
2022-10-23T04:51:27.378Z,13.87
2022-10-23T04:54:02.711Z,14.06
2022-10-23T04:56:50.727Z,14.05
2022-10-23T04:59:20.854Z,13.94
2022-10-23T05:01:47.687Z,13.99
2022-10-23T05:04:14.404Z,13.97
2022-10-23T05:07:03.986Z,13.97
2022-10-23T05:09:38.065Z,14.03
2022-10-23T05:12:16.905Z,14.18
2022-10-23T05:14:43.633Z,14.13
2022-10-23T05:17:18.436Z,14.09
2022-10-23T05:19:53.317Z,13.97
2022-10-23T05:22:21.857Z,13.99
2022-10-23T05:24:52.110Z,13.99
2022-10-23T05:27:22.412Z,14.05
2022-10-23T05:29:50.792Z,13.94
2022-10-23T05:34:48.109Z,13.74
2022-10-23T05:37:16.088Z,13.51
2022-10-23T05:39:43.261Z,13.33
2022-10-23T05:42:13.143Z,13.57
2022-10-23T05:44:41.193Z,13.77
2022-10-23T05:47:20.963Z,13.99
2022-10-23T05:50:12.247Z,14.21
2022-10-23T05:52:38.807Z,14.27
2022-10-23T05:55:32.207Z,14.22
2022-10-23T05:58:08.329Z,14.27
2022-10-23T06:00:59.575Z,14.50
2022-10-23T06:03:55.785Z,14.63
2022-10-23T06:06:29.139Z,14.73
2022-10-23T06:08:55.728Z,14.79
2022-10-23T06:11:22.631Z,14.82
2022-10-23T06:16:29.911Z,14.98
2022-10-23T06:18:57.422Z,14.97
2022-10-23T06:21:24.458Z,14.99
2022-10-23T06:23:52.354Z,15.01
2022-10-23T06:26:45.336Z,15.06
2022-10-23T06:29:27.416Z,15.12
2022-10-23T06:31:53.970Z,15.13
2022-10-23T06:34:20.570Z,15.09
2022-10-23T06:36:47.268Z,15.09
2022-10-23T06:39:29.817Z,15.03
2022-10-23T06:42:34.627Z,15.12
2022-10-23T06:45:20.084Z,15.09
2022-10-23T06:48:05.232Z,15.14
2022-10-23T06:50:55.727Z,15.23
2022-10-23T06:53:30.041Z,15.30
2022-10-23T06:56:08.122Z,15.20
2022-10-23T06:58:37.726Z,15.23
2022-10-23T07:01:13.684Z,15.27
2022-10-23T07:03:42.691Z,15.22
2022-10-23T07:06:10.916Z,15.22
2022-10-23T07:08:38.113Z,15.19
2022-10-23T07:11:16.672Z,15.33
2022-10-23T07:13:47.437Z,15.25
2022-10-23T07:16:21.783Z,15.14
2022-10-23T07:18:53.904Z,15.22
2022-10-23T07:21:31.909Z,15.28
2022-10-23T07:24:17.508Z,15.29
2022-10-23T07:26:44.736Z,15.36
2022-10-23T07:29:12.698Z,15.34
2022-10-23T07:31:39.347Z,15.36
2022-10-23T07:34:24.783Z,15.42
2022-10-23T07:37:08.099Z,15.41
2022-10-23T07:39:35.125Z,15.41
2022-10-23T07:42:01.725Z,15.49
2022-10-23T07:44:28.382Z,15.52
2022-10-23T07:46:55.622Z,15.51
2022-10-23T07:49:22.236Z,15.48
2022-10-23T07:51:51.400Z,15.45
2022-10-23T07:54:19.845Z,15.47
2022-10-23T07:57:19.797Z,15.47
2022-10-23T07:59:49.510Z,15.54
2022-10-23T08:02:20.754Z,15.57
2022-10-23T08:04:49.853Z,15.61
2022-10-23T08:07:27.097Z,15.57
2022-10-23T08:09:56.488Z,15.57
2022-10-23T08:12:23.702Z,15.58
2022-10-23T08:14:50.258Z,15.58
2022-10-23T08:17:17.744Z,15.67
2022-10-23T08:20:10.954Z,15.69
2022-10-23T08:22:42.377Z,15.77
2022-10-23T08:25:10.050Z,15.72
2022-10-23T08:27:36.836Z,15.65
2022-10-23T08:30:04.107Z,15.77
2022-10-23T08:32:31.042Z,15.83
2022-10-23T08:34:59.219Z,15.84
2022-10-23T08:37:28.616Z,15.87
2022-10-23T08:39:55.982Z,15.94
2022-10-23T08:42:47.295Z,16.16
2022-10-23T08:45:24.196Z,16.12
2022-10-23T08:47:59.060Z,16.06
2022-10-23T08:50:50.849Z,16.04
2022-10-23T08:53:27.325Z,16.15
2022-10-23T08:56:03.008Z,16.22
2022-10-23T08:58:31.818Z,16.24
2022-10-23T09:00:58.597Z,16.32
2022-10-23T09:03:26.998Z,16.32
2022-10-23T09:06:29.684Z,16.36
2022-10-23T09:09:27.256Z,16.41
2022-10-23T09:12:11.663Z,16.49
2022-10-23T09:15:08.151Z,16.49
2022-10-23T09:17:38.983Z,16.50
2022-10-23T09:20:27.421Z,16.54
2022-10-23T09:23:17.408Z,16.65
2022-10-23T09:25:45.424Z,16.63
2022-10-23T09:28:27.147Z,16.65
2022-10-23T09:30:54.000Z,16.62
2022-10-23T09:33:26.188Z,16.63
2022-10-23T09:35:58.839Z,16.60
2022-10-23T09:38:31.224Z,16.68
2022-10-23T09:41:23.112Z,16.66
2022-10-23T09:44:15.215Z,16.68
2022-10-23T09:46:44.243Z,16.66
2022-10-23T09:49:32.489Z,16.69
2022-10-23T09:52:04.632Z,16.78
2022-10-23T09:54:44.934Z,16.90
2022-10-23T09:57:32.251Z,17.03
2022-10-23T10:00:17.556Z,17.07
2022-10-23T10:02:57.669Z,17.17
2022-10-23T10:05:39.179Z,17.16
2022-10-23T10:08:37.622Z,17.17
2022-10-23T10:11:20.416Z,17.08
2022-10-23T10:14:05.891Z,17.27
2022-10-23T10:16:43.942Z,17.35
2022-10-23T10:19:35.955Z,17.46
2022-10-23T10:22:12.518Z,17.47
2022-10-23T10:24:53.694Z,17.47
2022-10-23T10:27:51.499Z,17.41
2022-10-23T10:30:21.265Z,17.41
2022-10-23T10:33:04.714Z,17.47
2022-10-23T10:35:57.663Z,17.57
2022-10-23T10:38:49.600Z,17.63
2022-10-23T10:41:36.807Z,17.64
2022-10-23T10:44:25.409Z,17.61
2022-10-23T10:47:05.553Z,17.67
2022-10-23T10:49:50.896Z,17.72
2022-10-23T10:52:49.165Z,17.72
2022-10-23T10:55:25.320Z,17.66
2022-10-23T10:58:28.388Z,17.64
2022-10-23T11:00:59.120Z,17.63
2022-10-23T11:03:49.935Z,17.68
2022-10-23T11:06:20.495Z,17.66
2022-10-23T11:08:57.237Z,17.69
2022-10-23T11:11:30.011Z,17.77
2022-10-23T11:13:57.646Z,17.75
2022-10-23T11:16:32.383Z,17.80
2022-10-23T11:19:14.224Z,17.83
2022-10-23T11:21:56.372Z,17.81
2022-10-23T11:24:39.492Z,17.74
2022-10-23T11:27:18.265Z,17.80
2022-10-23T11:30:17.619Z,17.88
2022-10-23T11:33:02.586Z,17.94
2022-10-23T11:35:52.253Z,17.89
2022-10-23T11:38:29.715Z,17.93
2022-10-23T11:41:00.912Z,18.01
2022-10-23T11:43:34.644Z,18.08
2022-10-23T11:46:15.338Z,18.16
2022-10-23T11:48:44.592Z,18.18
2022-10-23T11:51:37.493Z,18.08
2022-10-23T11:54:09.951Z,18.06
2022-10-23T11:56:54.796Z,18.14
2022-10-23T11:59:31.631Z,18.23
2022-10-23T12:02:02.599Z,18.24
2022-10-23T12:04:46.107Z,18.19
2022-10-23T12:07:34.753Z,18.20
2022-10-23T12:10:44.276Z,18.31
2022-10-23T12:13:32.316Z,18.34
2022-10-23T12:16:00.891Z,18.31
2022-10-23T12:18:28.269Z,18.38
2022-10-23T12:21:00.522Z,18.38
2022-10-23T12:23:34.739Z,18.39
2022-10-23T12:26:16.675Z,18.41
2022-10-23T12:29:15.336Z,18.40
2022-10-23T12:32:03.630Z,18.46
2022-10-23T12:34:44.996Z,18.50
2022-10-23T12:37:23.695Z,18.57
2022-10-23T12:39:55.625Z,18.67
2022-10-23T12:42:24.964Z,18.66
2022-10-23T12:45:15.494Z,18.77
2022-10-23T12:47:44.987Z,18.80
2022-10-23T12:50:21.744Z,18.87
2022-10-23T12:53:10.156Z,19.05
2022-10-23T12:55:57.091Z,19.16
2022-10-23T12:58:25.407Z,19.16
2022-10-23T13:00:57.668Z,19.16
2022-10-23T13:03:26.438Z,19.28
2022-10-23T13:05:55.540Z,19.44
2022-10-23T13:08:24.129Z,19.45
2022-10-23T13:11:15.565Z,19.60
2022-10-23T13:13:42.758Z,19.57
2022-10-23T13:16:24.884Z,19.54
2022-10-23T13:18:54.272Z,19.62
2022-10-23T13:21:23.895Z,19.65
2022-10-23T13:23:52.604Z,19.76
2022-10-23T13:26:33.606Z,19.86
2022-10-23T13:29:07.331Z,19.75
2022-10-23T13:31:36.598Z,19.87
2022-10-23T13:34:06.659Z,19.91
2022-10-23T13:36:37.352Z,19.86
2022-10-23T13:39:08.945Z,19.95
2022-10-23T13:41:39.595Z,19.91
2022-10-23T13:44:06.740Z,19.81
2022-10-23T13:46:33.317Z,19.73
2022-10-23T13:49:00.037Z,19.75
2022-10-23T13:51:33.295Z,19.78
2022-10-23T13:54:00.107Z,19.91
2022-10-23T13:56:27.786Z,20.07
2022-10-23T13:58:54.894Z,20.07
2022-10-23T14:01:27.246Z,20.04
2022-10-23T14:03:55.581Z,20.09
2022-10-23T14:06:22.218Z,20.03
2022-10-23T14:08:48.797Z,20.17
2022-10-23T14:11:17.553Z,20.10
2022-10-23T14:13:44.866Z,20.14
2022-10-23T14:16:16.765Z,20.20
2022-10-23T14:18:44.681Z,20.21
2022-10-23T14:21:13.480Z,20.25
2022-10-23T14:23:40.207Z,20.16
2022-10-23T14:26:10.144Z,20.16
2022-10-23T14:28:37.543Z,20.13
2022-10-23T14:31:06.146Z,20.01
2022-10-23T14:33:33.235Z,20.11
2022-10-23T14:36:00.645Z,20.10
2022-10-23T14:38:28.046Z,20.01
2022-10-23T14:40:54.726Z,20.01
2022-10-23T14:43:22.528Z,20.05
2022-10-23T14:45:49.170Z,20.11
2022-10-23T14:48:16.292Z,20.17
2022-10-23T14:50:47.151Z,20.19
2022-10-23T14:53:15.010Z,20.07
2022-10-23T14:55:41.847Z,19.98
2022-10-23T14:58:08.789Z,20.01
2022-10-23T15:00:35.637Z,19.98
2022-10-23T15:03:02.370Z,19.96
2022-10-23T15:05:29.060Z,19.98
2022-10-23T15:07:56.768Z,19.97
2022-10-23T15:10:23.363Z,19.94
2022-10-23T15:12:50.178Z,19.79
2022-10-23T15:15:16.754Z,19.77
2022-10-23T15:17:43.897Z,19.81
2022-10-23T15:20:10.782Z,19.80
2022-10-23T15:22:37.495Z,19.75
2022-10-23T15:25:04.444Z,19.73
2022-10-23T15:27:31.530Z,19.79
2022-10-23T15:29:58.104Z,19.87
2022-10-23T15:32:25.220Z,19.84
2022-10-23T15:34:53.639Z,19.92
2022-10-23T15:37:20.310Z,19.79
2022-10-23T15:39:47.518Z,19.81
2022-10-23T15:42:14.263Z,19.68
2022-10-23T15:44:41.490Z,19.58
2022-10-23T15:47:08.282Z,19.62
2022-10-23T15:49:35.609Z,19.50
2022-10-23T15:52:04.700Z,19.36
2022-10-23T15:54:33.064Z,19.30
2022-10-23T15:57:00.251Z,19.21
2022-10-23T15:59:28.808Z,19.17
2022-10-23T16:01:55.772Z,19.19
2022-10-23T16:04:23.278Z,19.18
2022-10-23T16:06:50.371Z,19.21
2022-10-23T16:09:17.290Z,19.23
2022-10-23T16:11:44.170Z,19.22
2022-10-23T16:14:17.077Z,19.25
2022-10-23T16:16:44.178Z,19.18
2022-10-23T16:19:12.129Z,19.15
2022-10-23T16:21:39.320Z,19.02
2022-10-23T16:24:08.058Z,18.98
2022-10-23T16:26:35.620Z,18.92
2022-10-23T16:29:05.306Z,18.85
2022-10-23T16:31:32.316Z,18.96
2022-10-23T16:34:00.803Z,19.02
2022-10-23T16:36:28.561Z,19.00
2022-10-23T16:39:16.750Z,19.02
2022-10-23T16:42:04.699Z,19.00
2022-10-23T16:44:56.674Z,19.07
2022-10-23T16:47:24.035Z,19.03
2022-10-23T16:49:50.623Z,19.00
2022-10-23T16:52:17.258Z,18.95
2022-10-23T16:54:44.162Z,18.94
2022-10-23T16:57:10.867Z,18.90
2022-10-23T16:59:37.512Z,18.90
2022-10-23T17:02:04.441Z,18.75
2022-10-23T17:04:31.122Z,18.77
2022-10-23T17:06:57.690Z,18.72
2022-10-23T17:09:26.425Z,18.79
2022-10-23T17:11:54.038Z,18.75
2022-10-23T17:14:21.193Z,18.70
2022-10-23T17:16:50.303Z,18.66
2022-10-23T17:19:43.855Z,18.71
2022-10-23T17:22:10.672Z,18.66
2022-10-23T17:24:40.178Z,18.66
2022-10-23T17:27:07.140Z,18.45
2022-10-23T17:29:33.835Z,18.04
2022-10-23T17:32:00.596Z,17.77
2022-10-23T17:34:27.286Z,17.35
2022-10-23T17:36:55.044Z,16.97
2022-10-23T17:39:25.229Z,16.87
2022-10-23T17:41:52.593Z,16.89
2022-10-23T17:44:19.972Z,16.89
2022-10-23T17:46:53.149Z,16.99
2022-10-23T17:49:20.964Z,17.01
2022-10-23T17:51:56.329Z,17.03
2022-10-23T17:54:24.980Z,16.88
2022-10-23T17:56:51.577Z,16.79
2022-10-23T17:59:21.450Z,16.79
2022-10-23T18:01:49.224Z,16.79
2022-10-23T18:04:18.656Z,16.62
2022-10-23T18:06:48.483Z,16.69
2022-10-23T18:09:15.769Z,16.78
2022-10-23T18:11:48.164Z,16.87
2022-10-23T18:14:18.063Z,16.86
2022-10-23T18:16:45.679Z,16.99
2022-10-23T18:19:13.767Z,17.05
2022-10-23T18:21:40.527Z,17.02
2022-10-23T18:24:07.232Z,16.96
2022-10-23T18:26:39.020Z,16.90
2022-10-23T18:29:09.722Z,16.96
2022-10-23T18:31:37.576Z,16.96
2022-10-23T18:34:07.534Z,16.92
2022-10-23T18:36:37.359Z,16.92
2022-10-23T18:39:05.551Z,16.97
2022-10-23T18:41:37.192Z,16.99
2022-10-23T18:44:04.341Z,17.09
2022-10-23T18:46:30.976Z,17.06
2022-10-23T18:48:59.683Z,17.16
2022-10-23T18:51:29.313Z,17.13
2022-10-23T18:53:56.085Z,17.10
2022-10-23T18:56:25.972Z,17.03
2022-10-23T18:58:54.888Z,17.01
2022-10-23T19:01:22.978Z,17.04
2022-10-23T19:03:50.418Z,17.07
2022-10-23T19:06:17.620Z,17.07
2022-10-23T19:08:45.525Z,17.12
2022-10-23T19:11:14.283Z,17.12
2022-10-23T19:13:41.804Z,17.16
2022-10-23T19:16:26.511Z,17.23
2022-10-23T19:19:06.740Z,17.28
2022-10-23T19:21:37.154Z,17.22
2022-10-23T19:24:11.696Z,17.37
2022-10-23T19:26:40.388Z,17.24
2022-10-23T19:29:09.862Z,17.27
2022-10-23T19:31:36.807Z,17.29
2022-10-23T19:34:03.793Z,17.30
2022-10-23T19:36:31.638Z,17.30
2022-10-23T19:38:58.397Z,17.35
2022-10-23T19:41:24.987Z,17.48
2022-10-23T19:43:51.544Z,17.30
2022-10-23T19:46:18.184Z,17.28
2022-10-23T19:48:46.687Z,17.21
2022-10-23T19:51:13.615Z,17.28
2022-10-23T19:53:41.823Z,17.32
2022-10-23T19:56:11.708Z,17.28
2022-10-23T19:58:39.849Z,17.28
2022-10-23T20:01:16.761Z,17.39
2022-10-23T20:03:50.448Z,17.46
2022-10-23T20:06:20.996Z,17.54
2022-10-23T20:08:48.033Z,17.66
2022-10-23T20:11:20.801Z,17.69
2022-10-23T20:13:49.082Z,17.69
2022-10-23T20:16:20.938Z,17.54
2022-10-23T20:18:48.189Z,17.60
2022-10-23T20:21:16.190Z,17.54
2022-10-23T20:23:43.699Z,17.64
2022-10-23T20:26:13.595Z,17.62
2022-10-23T20:28:40.399Z,17.60
2022-10-23T20:31:11.650Z,17.61
2022-10-23T20:33:40.729Z,17.61
2022-10-23T20:36:25.155Z,17.72
2022-10-23T20:38:52.133Z,17.75
2022-10-23T20:41:19.592Z,17.81
2022-10-23T20:43:46.500Z,17.83
2022-10-23T20:46:13.334Z,17.81
2022-10-23T20:48:43.051Z,17.81
2022-10-23T20:51:13.476Z,17.82
2022-10-23T20:53:41.764Z,17.72
2022-10-23T20:56:12.728Z,17.70
2022-10-23T20:58:40.147Z,17.60
2022-10-23T21:01:13.008Z,17.58
2022-10-23T21:03:39.871Z,17.49
2022-10-23T21:06:12.613Z,17.61
2022-10-23T21:08:40.408Z,17.66
2022-10-23T21:11:10.372Z,17.62
2022-10-23T21:13:37.316Z,17.50
2022-10-23T21:16:16.936Z,17.37
2022-10-23T21:18:46.707Z,17.46
2022-10-23T21:21:17.165Z,17.59
2022-10-23T21:23:43.866Z,17.62
2022-10-23T21:26:10.532Z,17.64
2022-10-23T21:28:37.393Z,17.75
2022-10-23T21:31:12.780Z,17.83
2022-10-23T21:33:40.236Z,17.78
2022-10-23T21:36:14.606Z,17.76
2022-10-23T21:38:41.220Z,17.74
2022-10-23T21:41:13.000Z,17.75
2022-10-23T21:43:39.670Z,17.83
2022-10-23T21:46:11.475Z,17.62
2022-10-23T21:48:38.297Z,17.69
2022-10-23T21:51:05.414Z,17.76
2022-10-23T21:53:32.694Z,17.73
2022-10-23T21:56:05.091Z,17.64
2022-10-23T21:58:32.780Z,17.66
2022-10-23T22:01:00.245Z,17.70
2022-10-23T22:03:26.830Z,17.74
2022-10-23T22:05:53.629Z,17.72
2022-10-23T22:08:20.450Z,17.64
2022-10-23T22:10:47.390Z,17.57
2022-10-23T22:13:14.354Z,17.55
2022-10-23T22:15:41.050Z,17.52
2022-10-23T22:18:07.736Z,17.47
2022-10-23T22:20:34.509Z,17.46
2022-10-23T22:23:01.075Z,17.41
2022-10-23T22:25:27.631Z,17.51
2022-10-23T22:27:54.640Z,17.50
2022-10-23T22:30:21.218Z,17.50
2022-10-23T22:32:47.847Z,17.46
2022-10-23T22:35:14.547Z,17.39
2022-10-23T22:37:41.251Z,17.35
2022-10-23T22:40:09.042Z,17.32
2022-10-23T22:42:35.913Z,17.43
2022-10-23T22:45:02.552Z,17.37
2022-10-23T22:47:30.164Z,17.45
2022-10-23T22:49:56.699Z,17.42
2022-10-23T22:52:23.251Z,17.41
2022-10-23T22:54:49.774Z,17.45
2022-10-23T22:57:16.457Z,17.43
2022-10-23T22:59:43.051Z,17.47
2022-10-23T23:02:09.979Z,17.42
2022-10-23T23:04:38.332Z,17.44
2022-10-23T23:07:07.965Z,17.49
2022-10-23T23:09:43.096Z,17.48
2022-10-23T23:12:12.609Z,17.37
2022-10-23T23:14:40.468Z,17.41
2022-10-23T23:17:08.356Z,17.52
2022-10-23T23:19:35.799Z,17.56
2022-10-23T23:22:03.032Z,17.52
2022-10-23T23:24:29.804Z,17.45
2022-10-23T23:26:56.448Z,17.46
2022-10-23T23:29:23.607Z,17.40
2022-10-23T23:31:50.212Z,17.41
2022-10-23T23:34:16.737Z,17.50
2022-10-23T23:36:43.651Z,17.50
2022-10-23T23:39:10.938Z,17.43
2022-10-23T23:41:38.158Z,17.37
2022-10-23T23:44:04.998Z,17.44
2022-10-23T23:46:32.043Z,17.50
2022-10-23T23:48:58.920Z,17.48
2022-10-23T23:51:26.580Z,17.51
2022-10-23T23:53:53.253Z,17.53
2022-10-23T23:56:20.975Z,17.54
2022-10-23T23:58:48.043Z,17.54
